sensor_id;sensor_type;location;lat;lon;timestamp;pressure;altitude;pressure_sealevel;temperature;humidity
29941;BME280;16801;53.562;10.038;2022-08-21T00:03:20;101567.38;;;19.01;63.42
29941;BME280;16801;53.562;10.038;2022-08-21T00:06:41;101572.16;;;19.07;63.50
29941;BME280;16801;53.562;10.038;2022-08-21T00:10:03;101573.34;;;18.96;63.57
29941;BME280;16801;53.562;10.038;2022-08-21T00:13:25;101572.34;;;18.97;63.36
29941;BME280;16801;53.562;10.038;2022-08-21T00:16:46;101565.00;;;19.06;63.08
29941;BME280;16801;53.562;10.038;2022-08-21T00:20:11;101570.66;;;18.88;63.65
29941;BME280;16801;53.562;10.038;2022-08-21T00:23:33;101571.50;;;18.89;63.61
29941;BME280;16801;53.562;10.038;2022-08-21T00:26:54;101562.13;;;18.91;63.85
29941;BME280;16801;53.562;10.038;2022-08-21T00:30:17;101553.06;;;18.91;63.67
29941;BME280;16801;53.562;10.038;2022-08-21T00:33:39;101553.06;;;18.91;64.17
29941;BME280;16801;53.562;10.038;2022-08-21T00:37:01;101555.28;;;18.95;63.39
29941;BME280;16801;53.562;10.038;2022-08-21T00:40:26;101540.81;;;18.71;64.63
29941;BME280;16801;53.562;10.038;2022-08-21T00:43:49;101547.28;;;18.54;65.11
29941;BME280;16801;53.562;10.038;2022-08-21T00:47:11;101550.22;;;18.52;65.36
29941;BME280;16801;53.562;10.038;2022-08-21T00:50:35;101549.84;;;18.63;65.01
29941;BME280;16801;53.562;10.038;2022-08-21T00:54:01;101545.41;;;18.70;65.40
29941;BME280;16801;53.562;10.038;2022-08-21T00:57:26;101547.63;;;18.59;65.33
29941;BME280;16801;53.562;10.038;2022-08-21T01:00:50;101550.88;;;18.54;65.71
29941;BME280;16801;53.562;10.038;2022-08-21T01:04:12;101550.31;;;18.26;67.53
29941;BME280;16801;53.562;10.038;2022-08-21T01:07:34;101546.41;;;18.29;67.77
29941;BME280;16801;53.562;10.038;2022-08-21T01:10:58;101549.13;;;18.29;67.75
29941;BME280;16801;53.562;10.038;2022-08-21T01:14:19;101547.53;;;18.02;69.27
29941;BME280;16801;53.562;10.038;2022-08-21T01:17:48;101545.34;;;18.06;69.45
29941;BME280;16801;53.562;10.038;2022-08-21T01:21:13;101550.47;;;18.09;69.20
29941;BME280;16801;53.562;10.038;2022-08-21T01:24:35;101548.59;;;18.25;68.83
29941;BME280;16801;53.562;10.038;2022-08-21T01:27:57;101544.00;;;18.34;68.86
29941;BME280;16801;53.562;10.038;2022-08-21T01:31:22;101549.81;;;18.31;68.88
29941;BME280;16801;53.562;10.038;2022-08-21T01:34:46;101550.31;;;18.34;68.64
29941;BME280;16801;53.562;10.038;2022-08-21T01:38:08;101554.06;;;18.25;69.62
29941;BME280;16801;53.562;10.038;2022-08-21T01:41:29;101551.34;;;18.17;69.37
29941;BME280;16801;53.562;10.038;2022-08-21T01:44:51;101542.81;;;18.28;69.30
29941;BME280;16801;53.562;10.038;2022-08-21T01:48:13;101557.34;;;18.37;68.90
29941;BME280;16801;53.562;10.038;2022-08-21T01:51:33;101547.28;;;18.38;69.32
29941;BME280;16801;53.562;10.038;2022-08-21T01:54:56;101544.88;;;18.34;69.18
29941;BME280;16801;53.562;10.038;2022-08-21T01:58:17;101543.69;;;18.21;69.61
29941;BME280;16801;53.562;10.038;2022-08-21T02:01:38;101542.28;;;18.09;70.08
29941;BME280;16801;53.562;10.038;2022-08-21T02:05:00;101540.91;;;18.05;70.28
29941;BME280;16801;53.562;10.038;2022-08-21T02:08:21;101548.41;;;17.95;70.80
29941;BME280;16801;53.562;10.038;2022-08-21T02:11:44;101540.41;;;18.17;70.05
29941;BME280;16801;53.562;10.038;2022-08-21T02:15:06;101538.91;;;18.23;69.80
29941;BME280;16801;53.562;10.038;2022-08-21T02:18:27;101545.00;;;18.09;70.61
29941;BME280;16801;53.562;10.038;2022-08-21T02:21:49;101544.00;;;18.02;70.87
29941;BME280;16801;53.562;10.038;2022-08-21T02:25:10;101547.72;;;18.01;70.85
29941;BME280;16801;53.562;10.038;2022-08-21T02:28:33;101542.63;;;18.06;70.80
29941;BME280;16801;53.562;10.038;2022-08-21T02:31:54;101537.00;;;17.99;70.93
29941;BME280;16801;53.562;10.038;2022-08-21T02:35:15;101537.50;;;18.11;70.99
29941;BME280;16801;53.562;10.038;2022-08-21T02:38:38;101538.69;;;18.00;70.76
29941;BME280;16801;53.562;10.038;2022-08-21T02:42:00;101536.50;;;18.20;70.49
29941;BME280;16801;53.562;10.038;2022-08-21T02:45:22;101537.69;;;18.17;69.70
29941;BME280;16801;53.562;10.038;2022-08-21T02:48:43;101537.50;;;18.11;69.73
29941;BME280;16801;53.562;10.038;2022-08-21T02:52:05;101533.84;;;17.70;70.04
29941;BME280;16801;53.562;10.038;2022-08-21T02:55:29;101532.31;;;17.76;70.03
29941;BME280;16801;53.562;10.038;2022-08-21T02:58:51;101524.69;;;17.79;69.95
29941;BME280;16801;53.562;10.038;2022-08-21T03:02:15;101521.94;;;17.79;69.85
29941;BME280;16801;53.562;10.038;2022-08-21T03:05:37;101521.88;;;17.63;70.38
29941;BME280;16801;53.562;10.038;2022-08-21T03:08:58;101523.44;;;17.74;70.02
29941;BME280;16801;53.562;10.038;2022-08-21T03:12:18;101529.19;;;17.54;70.41
29941;BME280;16801;53.562;10.038;2022-08-21T03:15:40;101526.88;;;17.42;71.24
29941;BME280;16801;53.562;10.038;2022-08-21T03:19:02;101524.72;;;17.45;70.34
29941;BME280;16801;53.562;10.038;2022-08-21T03:22:24;101526.31;;;17.56;70.50
29941;BME280;16801;53.562;10.038;2022-08-21T03:25:47;101515.44;;;17.64;70.00
29941;BME280;16801;53.562;10.038;2022-08-21T03:29:09;101523.78;;;17.63;70.33
29941;BME280;16801;53.562;10.038;2022-08-21T03:32:30;101519.16;;;17.63;70.36
29941;BME280;16801;53.562;10.038;2022-08-21T03:35:57;101521.97;;;17.45;70.50
29941;BME280;16801;53.562;10.038;2022-08-21T03:39:20;101519.81;;;17.57;70.19
29941;BME280;16801;53.562;10.038;2022-08-21T03:42:41;101521.06;;;17.63;69.84
29941;BME280;16801;53.562;10.038;2022-08-21T03:46:03;101516.28;;;17.65;69.62
29941;BME280;16801;53.562;10.038;2022-08-21T03:49:25;101517.69;;;17.43;70.62
29941;BME280;16801;53.562;10.038;2022-08-21T03:52:48;101518.88;;;17.40;70.33
29941;BME280;16801;53.562;10.038;2022-08-21T03:56:11;101523.66;;;17.38;70.70
29941;BME280;16801;53.562;10.038;2022-08-21T03:59:32;101515.63;;;17.29;70.73
29941;BME280;16801;53.562;10.038;2022-08-21T04:02:53;101525.06;;;17.17;71.40
29941;BME280;16801;53.562;10.038;2022-08-21T04:06:14;101520.34;;;17.19;71.14
29941;BME280;16801;53.562;10.038;2022-08-21T04:09:36;101519.72;;;17.33;70.81
29941;BME280;16801;53.562;10.038;2022-08-21T04:12:57;101523.09;;;17.27;71.13
29941;BME280;16801;53.562;10.038;2022-08-21T04:16:18;101524.34;;;17.40;70.28
29941;BME280;16801;53.562;10.038;2022-08-21T04:19:40;101522.97;;;17.44;70.44
29941;BME280;16801;53.562;10.038;2022-08-21T04:23:02;101517.31;;;17.30;70.79
29941;BME280;16801;53.562;10.038;2022-08-21T04:26:24;101527.66;;;17.18;70.61
29941;BME280;16801;53.562;10.038;2022-08-21T04:29:46;101525.16;;;17.33;70.83
29941;BME280;16801;53.562;10.038;2022-08-21T04:33:07;101525.03;;;17.42;70.37
29941;BME280;16801;53.562;10.038;2022-08-21T04:36:28;101527.75;;;17.42;70.42
29941;BME280;16801;53.562;10.038;2022-08-21T04:39:49;101530.13;;;17.37;70.64
29941;BME280;16801;53.562;10.038;2022-08-21T04:43:11;101528.13;;;17.47;69.61
29941;BME280;16801;53.562;10.038;2022-08-21T04:46:32;101529.63;;;17.42;69.92
29941;BME280;16801;53.562;10.038;2022-08-21T04:49:53;101542.91;;;17.37;69.91
29941;BME280;16801;53.562;10.038;2022-08-21T04:53:18;101541.47;;;17.58;69.58
29941;BME280;16801;53.562;10.038;2022-08-21T04:56:41;101542.69;;;17.64;68.90
29941;BME280;16801;53.562;10.038;2022-08-21T05:00:06;101542.50;;;17.58;69.39
29941;BME280;16801;53.562;10.038;2022-08-21T05:03:30;101543.69;;;17.63;69.49
29941;BME280;16801;53.562;10.038;2022-08-21T05:06:54;101550.38;;;17.69;68.79
29941;BME280;16801;53.562;10.038;2022-08-21T05:10:18;101549.19;;;17.71;68.86
29941;BME280;16801;53.562;10.038;2022-08-21T05:13:39;101546.59;;;17.62;68.75
29941;BME280;16801;53.562;10.038;2022-08-21T05:17:02;101545.28;;;17.74;68.92
29941;BME280;16801;53.562;10.038;2022-08-21T05:20:23;101546.16;;;17.90;68.57
29941;BME280;16801;53.562;10.038;2022-08-21T05:23:44;101549.47;;;17.52;69.39
29941;BME280;16801;53.562;10.038;2022-08-21T05:27:06;101548.06;;;17.98;68.88
29941;BME280;16801;53.562;10.038;2022-08-21T05:30:27;101556.47;;;18.20;67.09
29941;BME280;16801;53.562;10.038;2022-08-21T05:33:49;101560.19;;;18.03;67.47
29941;BME280;16801;53.562;10.038;2022-08-21T05:37:11;101561.25;;;18.34;66.64
29941;BME280;16801;53.562;10.038;2022-08-21T05:40:32;101558.41;;;18.52;66.02
29941;BME280;16801;53.562;10.038;2022-08-21T05:43:53;101554.09;;;18.42;66.14
29941;BME280;16801;53.562;10.038;2022-08-21T05:47:14;101553.75;;;18.28;66.61
29941;BME280;16801;53.562;10.038;2022-08-21T05:50:37;101558.72;;;18.49;66.36
29941;BME280;16801;53.562;10.038;2022-08-21T05:53:58;101554.97;;;18.58;65.49
29941;BME280;16801;53.562;10.038;2022-08-21T05:57:20;101556.66;;;18.59;65.42
29941;BME280;16801;53.562;10.038;2022-08-21T06:00:41;101551.56;;;18.48;66.18
29941;BME280;16801;53.562;10.038;2022-08-21T06:04:03;101554.59;;;18.29;65.95
29941;BME280;16801;53.562;10.038;2022-08-21T06:07:25;101554.44;;;18.55;65.40
29941;BME280;16801;53.562;10.038;2022-08-21T06:10:47;101555.81;;;18.51;65.79
29941;BME280;16801;53.562;10.038;2022-08-21T06:14:09;101561.28;;;18.75;64.64
29941;BME280;16801;53.562;10.038;2022-08-21T06:17:29;101557.63;;;18.98;64.74
29941;BME280;16801;53.562;10.038;2022-08-21T06:20:50;101557.97;;;19.11;63.89
29941;BME280;16801;53.562;10.038;2022-08-21T06:24:13;101564.00;;;18.91;63.97
29941;BME280;16801;53.562;10.038;2022-08-21T06:27:34;101563.00;;;18.60;64.89
29941;BME280;16801;53.562;10.038;2022-08-21T06:30:55;101564.88;;;18.51;65.25
29941;BME280;16801;53.562;10.038;2022-08-21T06:34:17;101565.16;;;18.16;65.93
29941;BME280;16801;53.562;10.038;2022-08-21T06:37:38;101557.66;;;18.34;65.82
29941;BME280;16801;53.562;10.038;2022-08-21T06:41:00;101555.03;;;17.92;66.44
29941;BME280;16801;53.562;10.038;2022-08-21T06:44:21;101552.50;;;18.07;65.28
29941;BME280;16801;53.562;10.038;2022-08-21T06:47:42;101558.34;;;18.28;64.56
29941;BME280;16801;53.562;10.038;2022-08-21T06:51:03;101558.22;;;18.62;62.86
29941;BME280;16801;53.562;10.038;2022-08-21T06:54:25;101554.22;;;18.96;62.66
29941;BME280;16801;53.562;10.038;2022-08-21T06:57:47;101548.69;;;19.29;61.65
29941;BME280;16801;53.562;10.038;2022-08-21T07:01:08;101537.69;;;18.98;61.80
29941;BME280;16801;53.562;10.038;2022-08-21T07:04:29;101545.19;;;18.96;62.66
29941;BME280;16801;53.562;10.038;2022-08-21T07:07:49;101542.28;;;18.97;61.84
29941;BME280;16801;53.562;10.038;2022-08-21T07:11:13;101535.50;;;18.85;62.02
29941;BME280;16801;53.562;10.038;2022-08-21T07:14:36;101541.38;;;19.13;61.95
29941;BME280;16801;53.562;10.038;2022-08-21T07:17:58;101536.28;;;19.57;60.49
29941;BME280;16801;53.562;10.038;2022-08-21T07:21:19;101539.88;;;20.19;59.39
29941;BME280;16801;53.562;10.038;2022-08-21T07:24:40;101528.00;;;20.49;58.03
29941;BME280;16801;53.562;10.038;2022-08-21T07:28:02;101520.81;;;20.48;56.82
29941;BME280;16801;53.562;10.038;2022-08-21T07:31:25;101517.44;;;20.15;58.36
29941;BME280;16801;53.562;10.038;2022-08-21T07:34:46;101529.25;;;20.16;58.35
29941;BME280;16801;53.562;10.038;2022-08-21T07:38:07;101521.09;;;20.08;57.76
29941;BME280;16801;53.562;10.038;2022-08-21T07:41:28;101516.88;;;20.28;57.85
29941;BME280;16801;53.562;10.038;2022-08-21T07:44:50;101512.25;;;20.65;57.25
29941;BME280;16801;53.562;10.038;2022-08-21T07:48:12;101506.03;;;20.71;56.72
29941;BME280;16801;53.562;10.038;2022-08-21T07:51:33;101511.88;;;20.54;56.10
29941;BME280;16801;53.562;10.038;2022-08-21T07:54:54;101511.41;;;20.50;56.60
29941;BME280;16801;53.562;10.038;2022-08-21T07:58:15;101508.97;;;20.85;55.96
29941;BME280;16801;53.562;10.038;2022-08-21T08:01:37;101507.53;;;20.14;57.50
29941;BME280;16801;53.562;10.038;2022-08-21T08:05:00;101506.69;;;20.73;56.52
29941;BME280;16801;53.562;10.038;2022-08-21T08:08:21;101499.91;;;20.99;56.14
29941;BME280;16801;53.562;10.038;2022-08-21T08:11:43;101501.94;;;21.34;55.03
29941;BME280;16801;53.562;10.038;2022-08-21T08:15:08;101497.59;;;21.75;54.24
29941;BME280;16801;53.562;10.038;2022-08-21T08:18:30;101494.25;;;21.59;53.39
29941;BME280;16801;53.562;10.038;2022-08-21T08:21:53;101495.63;;;22.26;52.76
29941;BME280;16801;53.562;10.038;2022-08-21T08:25:15;101491.03;;;21.40;54.03
29941;BME280;16801;53.562;10.038;2022-08-21T08:28:37;101492.09;;;21.75;53.36
29941;BME280;16801;53.562;10.038;2022-08-21T08:31:58;101496.75;;;22.10;51.87
29941;BME280;16801;53.562;10.038;2022-08-21T08:35:19;101497.47;;;21.98;52.68
29941;BME280;16801;53.562;10.038;2022-08-21T08:38:41;101492.22;;;21.82;51.94
29941;BME280;16801;53.562;10.038;2022-08-21T08:42:05;101494.72;;;21.98;52.08
29941;BME280;16801;53.562;10.038;2022-08-21T08:45:32;101485.94;;;22.30;52.28
29941;BME280;16801;53.562;10.038;2022-08-21T08:48:57;101479.97;;;22.48;52.40
29941;BME280;16801;53.562;10.038;2022-08-21T08:52:26;101486.25;;;22.90;50.68
29941;BME280;16801;53.562;10.038;2022-08-21T08:55:51;101479.69;;;22.91;52.97
29941;BME280;16801;53.562;10.038;2022-08-21T08:59:19;101474.72;;;23.42;51.82
29941;BME280;16801;53.562;10.038;2022-08-21T09:02:43;101482.34;;;23.40;49.25
29941;BME280;16801;53.562;10.038;2022-08-21T09:06:11;101476.88;;;22.30;51.79
29941;BME280;16801;53.562;10.038;2022-08-21T09:09:48;101486.41;;;22.34;51.54
29941;BME280;16801;53.562;10.038;2022-08-21T09:13:19;101478.31;;;23.09;50.61
29941;BME280;16801;53.562;10.038;2022-08-21T09:16:47;101478.66;;;22.44;51.25
29941;BME280;16801;53.562;10.038;2022-08-21T09:20:19;101472.66;;;22.34;51.60
29941;BME280;16801;53.562;10.038;2022-08-21T09:23:50;101464.09;;;22.71;51.39
29941;BME280;16801;53.562;10.038;2022-08-21T09:27:16;101475.75;;;23.41;50.04
29941;BME280;16801;53.562;10.038;2022-08-21T09:30:40;101472.16;;;23.07;49.52
29941;BME280;16801;53.562;10.038;2022-08-21T09:34:03;101459.78;;;22.34;51.52
29941;BME280;16801;53.562;10.038;2022-08-21T09:37:26;101460.34;;;22.51;50.65
29941;BME280;16801;53.562;10.038;2022-08-21T09:40:56;101452.84;;;22.38;50.93
29941;BME280;16801;53.562;10.038;2022-08-21T09:44:24;101465.22;;;23.11;49.33
29941;BME280;16801;53.562;10.038;2022-08-21T09:47:47;101459.09;;;23.62;48.78
29941;BME280;16801;53.562;10.038;2022-08-21T09:51:10;101466.16;;;23.78;47.93
29941;BME280;16801;53.562;10.038;2022-08-21T09:54:32;101456.72;;;24.20;47.90
29941;BME280;16801;53.562;10.038;2022-08-21T09:57:55;101463.31;;;23.18;49.26
29941;BME280;16801;53.562;10.038;2022-08-21T10:01:18;101454.94;;;22.91;50.81
29941;BME280;16801;53.562;10.038;2022-08-21T10:04:48;101453.19;;;23.65;49.47
29941;BME280;16801;53.562;10.038;2022-08-21T10:08:17;101445.28;;;24.36;47.34
29941;BME280;16801;53.562;10.038;2022-08-21T10:11:39;101442.31;;;24.57;48.18
29941;BME280;16801;53.562;10.038;2022-08-21T10:15:07;101459.91;;;23.50;48.74
29941;BME280;16801;53.562;10.038;2022-08-21T10:18:35;101454.34;;;23.37;49.91
29941;BME280;16801;53.562;10.038;2022-08-21T10:22:06;101446.31;;;24.41;47.60
29941;BME280;16801;53.562;10.038;2022-08-21T10:25:45;101459.44;;;24.98;46.47
29941;BME280;16801;53.562;10.038;2022-08-21T10:29:14;101450.75;;;24.69;47.02
29941;BME280;16801;53.562;10.038;2022-08-21T10:32:57;101449.50;;;24.45;47.72
29941;BME280;16801;53.562;10.038;2022-08-21T10:36:26;101460.91;;;24.03;47.47
29941;BME280;16801;53.562;10.038;2022-08-21T10:40:02;101455.84;;;24.06;47.96
29941;BME280;16801;53.562;10.038;2022-08-21T10:43:36;101452.03;;;24.14;48.17
29941;BME280;16801;53.562;10.038;2022-08-21T10:47:01;101444.81;;;24.72;46.42
29941;BME280;16801;53.562;10.038;2022-08-21T10:50:30;101441.22;;;24.91;45.75
29941;BME280;16801;53.562;10.038;2022-08-21T10:53:59;101444.38;;;25.01;44.69
29941;BME280;16801;53.562;10.038;2022-08-21T10:57:29;101444.38;;;25.01;44.08
29941;BME280;16801;53.562;10.038;2022-08-21T11:00:55;101450.75;;;24.62;43.45
29941;BME280;16801;53.562;10.038;2022-08-21T11:04:23;101444.03;;;25.42;43.29
29941;BME280;16801;53.562;10.038;2022-08-21T11:07:48;101441.09;;;25.23;42.54
29941;BME280;16801;53.562;10.038;2022-08-21T11:11:15;101439.00;;;25.19;42.27
29941;BME280;16801;53.562;10.038;2022-08-21T11:14:48;101437.97;;;25.13;43.65
29941;BME280;16801;53.562;10.038;2022-08-21T11:18:21;101436.13;;;26.45;40.94
29941;BME280;16801;53.562;10.038;2022-08-21T11:21:48;101439.41;;;25.73;40.59
29941;BME280;16801;53.562;10.038;2022-08-21T11:25:14;101441.03;;;25.81;41.22
29941;BME280;16801;53.562;10.038;2022-08-21T11:28:43;101447.31;;;26.32;40.08
29941;BME280;16801;53.562;10.038;2022-08-21T11:32:27;101446.38;;;25.31;40.61
29941;BME280;16801;53.562;10.038;2022-08-21T11:35:56;101453.00;;;25.75;40.27
29941;BME280;16801;53.562;10.038;2022-08-21T11:39:27;101449.75;;;26.47;37.50
29941;BME280;16801;53.562;10.038;2022-08-21T11:42:59;101453.28;;;26.54;37.92
29941;BME280;16801;53.562;10.038;2022-08-21T11:46:29;101453.19;;;26.18;38.05
29941;BME280;16801;53.562;10.038;2022-08-21T11:50:02;101451.88;;;27.48;37.06
29941;BME280;16801;53.562;10.038;2022-08-21T11:53:31;101456.97;;;29.10;34.08
29941;BME280;16801;53.562;10.038;2022-08-21T11:56:57;101457.91;;;29.39;32.63
29941;BME280;16801;53.562;10.038;2022-08-21T12:00:23;101449.72;;;28.63;32.29
29941;BME280;16801;53.562;10.038;2022-08-21T12:03:53;101445.09;;;32.87;27.10
29941;BME280;16801;53.562;10.038;2022-08-21T12:07:30;101438.47;;;35.56;23.35
29941;BME280;16801;53.562;10.038;2022-08-21T12:11:00;101432.50;;;34.99;23.82
29941;BME280;16801;53.562;10.038;2022-08-21T12:14:22;101451.00;;;31.95;27.74
29941;BME280;16801;53.562;10.038;2022-08-21T12:17:56;101435.72;;;35.41;23.53
29941;BME280;16801;53.562;10.038;2022-08-21T12:21:24;101434.19;;;34.44;24.36
29941;BME280;16801;53.562;10.038;2022-08-21T12:24:49;101438.56;;;35.26;24.22
29941;BME280;16801;53.562;10.038;2022-08-21T12:28:12;101434.63;;;33.66;24.96
29941;BME280;16801;53.562;10.038;2022-08-21T12:31:34;101434.22;;;34.29;24.31
29941;BME280;16801;53.562;10.038;2022-08-21T12:35:01;101433.81;;;33.14;26.35
29941;BME280;16801;53.562;10.038;2022-08-21T12:38:27;101441.16;;;29.62;31.72
29941;BME280;16801;53.562;10.038;2022-08-21T12:41:52;101435.03;;;34.45;25.30
29941;BME280;16801;53.562;10.038;2022-08-21T12:45:18;101439.88;;;35.54;23.29
29941;BME280;16801;53.562;10.038;2022-08-21T12:48:44;101435.50;;;35.22;23.39
29941;BME280;16801;53.562;10.038;2022-08-21T12:52:12;101426.66;;;34.55;23.47
29941;BME280;16801;53.562;10.038;2022-08-21T12:55:41;101429.47;;;37.04;22.04
29941;BME280;16801;53.562;10.038;2022-08-21T12:59:05;101433.53;;;36.93;21.89
29941;BME280;16801;53.562;10.038;2022-08-21T13:02:30;101424.19;;;36.98;21.82
29941;BME280;16801;53.562;10.038;2022-08-21T13:05:52;101420.63;;;38.83;20.33
29941;BME280;16801;53.562;10.038;2022-08-21T13:09:15;101417.59;;;35.77;22.89
29941;BME280;16801;53.562;10.038;2022-08-21T13:12:37;101423.84;;;34.15;24.02
29941;BME280;16801;53.562;10.038;2022-08-21T13:16:02;101415.91;;;35.07;23.87
29941;BME280;16801;53.562;10.038;2022-08-21T13:19:23;101419.09;;;37.89;21.22
29941;BME280;16801;53.562;10.038;2022-08-21T13:22:45;101419.34;;;34.24;23.84
29941;BME280;16801;53.562;10.038;2022-08-21T13:26:12;101413.81;;;36.02;23.07
29941;BME280;16801;53.562;10.038;2022-08-21T13:29:34;101410.25;;;36.59;22.00
29941;BME280;16801;53.562;10.038;2022-08-21T13:32:58;101411.41;;;37.10;21.23
29941;BME280;16801;53.562;10.038;2022-08-21T13:36:24;101406.28;;;36.60;21.07
29941;BME280;16801;53.562;10.038;2022-08-21T13:39:49;101406.69;;;35.07;23.00
29941;BME280;16801;53.562;10.038;2022-08-21T13:43:13;101409.34;;;33.41;24.60
29941;BME280;16801;53.562;10.038;2022-08-21T13:46:36;101412.00;;;34.88;22.97
29941;BME280;16801;53.562;10.038;2022-08-21T13:49:59;101407.91;;;35.45;22.85
29941;BME280;16801;53.562;10.038;2022-08-21T13:53:23;101401.16;;;34.31;23.60
29941;BME280;16801;53.562;10.038;2022-08-21T13:56:48;101404.66;;;35.17;22.29
29941;BME280;16801;53.562;10.038;2022-08-21T14:00:12;101404.47;;;34.79;22.76
29941;BME280;16801;53.562;10.038;2022-08-21T14:03:37;101402.00;;;34.22;23.28
29941;BME280;16801;53.562;10.038;2022-08-21T14:07:14;101396.75;;;31.16;27.31
29941;BME280;16801;53.562;10.038;2022-08-21T14:10:41;101399.66;;;32.28;26.81
29941;BME280;16801;53.562;10.038;2022-08-21T14:14:04;101400.28;;;33.96;24.47
29941;BME280;16801;53.562;10.038;2022-08-21T14:17:29;101395.75;;;33.74;24.04
29941;BME280;16801;53.562;10.038;2022-08-21T14:20:52;101399.09;;;33.04;25.50
29941;BME280;16801;53.562;10.038;2022-08-21T14:24:29;101409.34;;;32.47;26.10
29941;BME280;16801;53.562;10.038;2022-08-21T14:27:52;101403.31;;;31.75;26.41
29941;BME280;16801;53.562;10.038;2022-08-21T14:31:15;101397.72;;;30.34;29.13
29941;BME280;16801;53.562;10.038;2022-08-21T14:34:37;101398.72;;;30.11;29.38
29941;BME280;16801;53.562;10.038;2022-08-21T14:37:58;101400.56;;;29.89;30.25
29941;BME280;16801;53.562;10.038;2022-08-21T14:41:22;101397.00;;;28.74;31.83
29941;BME280;16801;53.562;10.038;2022-08-21T14:44:44;101393.03;;;28.70;31.80
29941;BME280;16801;53.562;10.038;2022-08-21T14:48:05;101400.81;;;28.50;32.06
29941;BME280;16801;53.562;10.038;2022-08-21T14:51:26;101405.63;;;27.49;32.45
29941;BME280;16801;53.562;10.038;2022-08-21T14:54:49;101402.44;;;28.69;31.27
29941;BME280;16801;53.562;10.038;2022-08-21T14:58:11;101400.94;;;28.32;32.22
29941;BME280;16801;53.562;10.038;2022-08-21T15:01:35;101402.00;;;28.31;32.65
29941;BME280;16801;53.562;10.038;2022-08-21T15:04:56;101403.16;;;29.39;31.96
29941;BME280;16801;53.562;10.038;2022-08-21T15:08:17;101401.22;;;28.65;32.02
29941;BME280;16801;53.562;10.038;2022-08-21T15:11:38;101403.44;;;29.54;32.38
29941;BME280;16801;53.562;10.038;2022-08-21T15:15:01;101404.19;;;29.21;32.16
29941;BME280;16801;53.562;10.038;2022-08-21T15:18:24;101398.72;;;29.66;32.42
29941;BME280;16801;53.562;10.038;2022-08-21T15:21:46;101397.88;;;30.44;31.48
29941;BME280;16801;53.562;10.038;2022-08-21T15:25:08;101398.09;;;30.75;30.96
29941;BME280;16801;53.562;10.038;2022-08-21T15:28:29;101399.41;;;31.06;30.59
29941;BME280;16801;53.562;10.038;2022-08-21T15:31:54;101399.19;;;31.13;30.25
29941;BME280;16801;53.562;10.038;2022-08-21T15:35:15;101398.03;;;31.30;29.40
29941;BME280;16801;53.562;10.038;2022-08-21T15:38:36;101396.44;;;29.23;32.10
29941;BME280;16801;53.562;10.038;2022-08-21T15:41:58;101396.00;;;29.83;31.44
29941;BME280;16801;53.562;10.038;2022-08-21T15:45:19;101390.31;;;30.39;30.87
29941;BME280;16801;53.562;10.038;2022-08-21T15:48:42;101401.03;;;30.31;32.05
29941;BME280;16801;53.562;10.038;2022-08-21T15:52:05;101396.66;;;29.62;31.97
29941;BME280;16801;53.562;10.038;2022-08-21T15:55:26;101397.03;;;29.37;31.90
29941;BME280;16801;53.562;10.038;2022-08-21T15:58:48;101401.06;;;28.95;32.51
29941;BME280;16801;53.562;10.038;2022-08-21T16:02:13;101396.66;;;29.34;32.24
29941;BME280;16801;53.562;10.038;2022-08-21T16:05:36;101387.53;;;28.29;33.53
29941;BME280;16801;53.562;10.038;2022-08-21T16:08:57;101407.38;;;27.61;34.28
29941;BME280;16801;53.562;10.038;2022-08-21T16:12:22;101397.34;;;27.60;35.57
29941;BME280;16801;53.562;10.038;2022-08-21T16:15:44;101396.72;;;28.29;34.79
29941;BME280;16801;53.562;10.038;2022-08-21T16:19:05;101401.63;;;28.04;34.23
29941;BME280;16801;53.562;10.038;2022-08-21T16:22:28;101390.94;;;27.90;34.89
29941;BME280;16801;53.562;10.038;2022-08-21T16:25:49;101386.44;;;27.77;35.41
29941;BME280;16801;53.562;10.038;2022-08-21T16:29:10;101392.00;;;28.30;35.34
29941;BME280;16801;53.562;10.038;2022-08-21T16:32:31;101386.47;;;28.53;33.95
29941;BME280;16801;53.562;10.038;2022-08-21T16:35:53;101390.38;;;28.64;34.36
29941;BME280;16801;53.562;10.038;2022-08-21T16:39:16;101392.41;;;28.68;34.69
29941;BME280;16801;53.562;10.038;2022-08-21T16:42:38;101387.69;;;28.80;34.15
29941;BME280;16801;53.562;10.038;2022-08-21T16:46:00;101394.06;;;28.34;33.88
29941;BME280;16801;53.562;10.038;2022-08-21T16:49:21;101392.63;;;28.32;35.01
29941;BME280;16801;53.562;10.038;2022-08-21T16:52:42;101388.75;;;28.21;33.64
29941;BME280;16801;53.562;10.038;2022-08-21T16:56:05;101396.47;;;28.19;33.73
29941;BME280;16801;53.562;10.038;2022-08-21T16:59:26;101390.78;;;28.14;34.43
29941;BME280;16801;53.562;10.038;2022-08-21T17:02:50;101384.50;;;28.07;34.30
29941;BME280;16801;53.562;10.038;2022-08-21T17:06:14;101391.03;;;27.72;34.53
29941;BME280;16801;53.562;10.038;2022-08-21T17:09:35;101396.44;;;27.37;34.30
29941;BME280;16801;53.562;10.038;2022-08-21T17:12:57;101393.66;;;27.37;35.00
29941;BME280;16801;53.562;10.038;2022-08-21T17:16:19;101392.09;;;27.05;35.53
29941;BME280;16801;53.562;10.038;2022-08-21T17:19:41;101397.19;;;26.89;36.10
29941;BME280;16801;53.562;10.038;2022-08-21T17:23:02;101400.31;;;26.75;37.26
29941;BME280;16801;53.562;10.038;2022-08-21T17:26:24;101404.19;;;26.49;36.77
29941;BME280;16801;53.562;10.038;2022-08-21T17:29:46;101403.75;;;26.28;37.68
29941;BME280;16801;53.562;10.038;2022-08-21T17:33:09;101402.09;;;26.45;36.87